sensor_id;sensor_type;location;lat;lon;timestamp;noise_LAeq;noise_LA_min;noise_LA_max;noise_LA01;noise_LA95
77133;Laerm;26708;50.304;19.028;2023-07-13T00:01:51;54.96;52.52;67.71;;
77133;Laerm;26708;50.304;19.028;2023-07-13T00:03:56;54.60;52.10;60.19;;
77133;Laerm;26708;50.304;19.028;2023-07-13T00:06:02;53.51;50.47;58.56;;
77133;Laerm;26708;50.304;19.028;2023-07-13T00:08:09;50.82;47.89;59.17;;
77133;Laerm;26708;50.304;19.028;2023-07-13T00:10:14;50.25;47.49;56.74;;
77133;Laerm;26708;50.304;19.028;2023-07-13T00:12:27;49.38;46.38;58.66;;
77133;Laerm;26708;50.304;19.028;2023-07-13T00:14:33;49.23;46.22;57.47;;
77133;Laerm;26708;50.304;19.028;2023-07-13T00:16:39;48.70;45.94;54.80;;
77133;Laerm;26708;50.304;19.028;2023-07-13T00:18:47;49.13;46.09;54.65;;
77133;Laerm;26708;50.304;19.028;2023-07-13T00:20:54;48.75;46.14;54.69;;
77133;Laerm;26708;50.304;19.028;2023-07-13T00:23:09;48.52;45.93;54.69;;
77133;Laerm;26708;50.304;19.028;2023-07-13T00:25:15;48.24;45.83;54.50;;
77133;Laerm;26708;50.304;19.028;2023-07-13T00:27:20;48.15;45.45;54.60;;
77133;Laerm;26708;50.304;19.028;2023-07-13T00:29:28;48.26;45.60;53.87;;
77133;Laerm;26708;50.304;19.028;2023-07-13T00:31:36;48.61;46.35;53.60;;
77133;Laerm;26708;50.304;19.028;2023-07-13T00:33:42;48.29;45.87;52.59;;
77133;Laerm;26708;50.304;19.028;2023-07-13T00:35:46;51.10;45.28;64.96;;
77133;Laerm;26708;50.304;19.028;2023-07-13T00:37:52;48.46;45.60;53.71;;
77133;Laerm;26708;50.304;19.028;2023-07-13T00:40:01;48.57;46.30;58.09;;
77133;Laerm;26708;50.304;19.028;2023-07-13T00:42:07;48.56;46.46;54.93;;
77133;Laerm;26708;50.304;19.028;2023-07-13T00:44:15;48.40;46.10;52.50;;
77133;Laerm;26708;50.304;19.028;2023-07-13T00:46:25;48.19;45.82;54.65;;
77133;Laerm;26708;50.304;19.028;2023-07-13T00:48:34;48.37;45.69;55.50;;
77133;Laerm;26708;50.304;19.028;2023-07-13T00:50:45;48.47;45.76;54.13;;
77133;Laerm;26708;50.304;19.028;2023-07-13T00:52:55;48.34;46.18;54.59;;
77133;Laerm;26708;50.304;19.028;2023-07-13T00:55:04;48.63;45.90;59.63;;
77133;Laerm;26708;50.304;19.028;2023-07-13T00:57:17;48.33;46.25;50.52;;
77133;Laerm;26708;50.304;19.028;2023-07-13T00:59:24;48.46;45.89;53.64;;
77133;Laerm;26708;50.304;19.028;2023-07-13T01:01:29;51.55;45.98;62.39;;
77133;Laerm;26708;50.304;19.028;2023-07-13T01:03:31;48.20;45.93;52.16;;
77133;Laerm;26708;50.304;19.028;2023-07-13T01:05:36;48.16;45.45;53.29;;
77133;Laerm;26708;50.304;19.028;2023-07-13T01:07:44;48.03;45.57;51.40;;
77133;Laerm;26708;50.304;19.028;2023-07-13T01:09:50;48.33;46.07;51.03;;
77133;Laerm;26708;50.304;19.028;2023-07-13T01:11:58;48.52;46.25;51.27;;
77133;Laerm;26708;50.304;19.028;2023-07-13T01:14:03;48.45;46.28;52.59;;
77133;Laerm;26708;50.304;19.028;2023-07-13T01:16:24;49.59;46.10;54.46;;
77133;Laerm;26708;50.304;19.028;2023-07-13T01:18:30;52.11;47.35;62.54;;
77133;Laerm;26708;50.304;19.028;2023-07-13T01:20:34;49.40;47.23;53.42;;
77133;Laerm;26708;50.304;19.028;2023-07-13T01:22:43;50.58;47.04;60.41;;
77133;Laerm;26708;50.304;19.028;2023-07-13T01:24:48;49.27;45.95;56.44;;
77133;Laerm;26708;50.304;19.028;2023-07-13T01:26:53;48.31;46.06;53.55;;
77133;Laerm;26708;50.304;19.028;2023-07-13T01:28:55;48.42;46.20;54.88;;
77133;Laerm;26708;50.304;19.028;2023-07-13T01:31:00;48.25;46.21;51.57;;
77133;Laerm;26708;50.304;19.028;2023-07-13T01:33:05;48.64;45.60;57.22;;
77133;Laerm;26708;50.304;19.028;2023-07-13T01:35:12;53.29;46.57;62.78;;
77133;Laerm;26708;50.304;19.028;2023-07-13T01:37:18;49.26;46.22;56.27;;
77133;Laerm;26708;50.304;19.028;2023-07-13T01:39:25;48.78;46.26;53.35;;
77133;Laerm;26708;50.304;19.028;2023-07-13T01:41:30;48.63;45.99;53.98;;
77133;Laerm;26708;50.304;19.028;2023-07-13T01:43:35;48.20;45.90;56.43;;
77133;Laerm;26708;50.304;19.028;2023-07-13T01:45:42;48.24;45.89;51.91;;
77133;Laerm;26708;50.304;19.028;2023-07-13T01:47:47;48.46;45.82;52.02;;
77133;Laerm;26708;50.304;19.028;2023-07-13T01:49:52;51.70;46.23;67.04;;
77133;Laerm;26708;50.304;19.028;2023-07-13T01:51:57;48.54;46.02;53.57;;
77133;Laerm;26708;50.304;19.028;2023-07-13T01:54:02;48.52;45.98;57.30;;
77133;Laerm;26708;50.304;19.028;2023-07-13T01:56:10;48.15;45.75;53.03;;
77133;Laerm;26708;50.304;19.028;2023-07-13T01:58:14;48.16;46.15;54.28;;
77133;Laerm;26708;50.304;19.028;2023-07-13T02:00:20;48.21;45.63;53.04;;
77133;Laerm;26708;50.304;19.028;2023-07-13T02:02:26;48.27;45.79;56.15;;
77133;Laerm;26708;50.304;19.028;2023-07-13T02:04:30;48.00;45.42;52.64;;
77133;Laerm;26708;50.304;19.028;2023-07-13T02:06:35;48.39;45.67;52.29;;
77133;Laerm;26708;50.304;19.028;2023-07-13T02:08:41;48.67;45.85;53.81;;
77133;Laerm;26708;50.304;19.028;2023-07-13T02:10:46;48.51;46.14;53.59;;
77133;Laerm;26708;50.304;19.028;2023-07-13T02:12:54;48.31;45.70;50.66;;
77133;Laerm;26708;50.304;19.028;2023-07-13T02:14:58;48.10;45.54;50.77;;
77133;Laerm;26708;50.304;19.028;2023-07-13T02:17:04;48.05;45.41;53.35;;
77133;Laerm;26708;50.304;19.028;2023-07-13T02:19:09;48.18;45.92;50.18;;
77133;Laerm;26708;50.304;19.028;2023-07-13T02:21:14;48.28;45.74;53.63;;
77133;Laerm;26708;50.304;19.028;2023-07-13T02:23:20;52.05;46.08;65.83;;
77133;Laerm;26708;50.304;19.028;2023-07-13T02:25:25;48.97;46.25;56.28;;
77133;Laerm;26708;50.304;19.028;2023-07-13T02:27:30;48.66;45.80;52.33;;
77133;Laerm;26708;50.304;19.028;2023-07-13T02:29:37;49.17;46.26;55.13;;
77133;Laerm;26708;50.304;19.028;2023-07-13T02:31:42;48.71;46.18;51.96;;
77133;Laerm;26708;50.304;19.028;2023-07-13T02:33:47;48.61;46.30;51.64;;
77133;Laerm;26708;50.304;19.028;2023-07-13T02:35:51;49.86;46.06;61.58;;
77133;Laerm;26708;50.304;19.028;2023-07-13T02:37:58;48.54;46.10;52.53;;
77133;Laerm;26708;50.304;19.028;2023-07-13T02:40:04;48.76;46.44;51.38;;
77133;Laerm;26708;50.304;19.028;2023-07-13T02:42:11;51.48;46.35;66.33;;
77133;Laerm;26708;50.304;19.028;2023-07-13T02:44:17;48.59;46.24;54.57;;
77133;Laerm;26708;50.304;19.028;2023-07-13T02:46:24;48.41;45.72;53.60;;
77133;Laerm;26708;50.304;19.028;2023-07-13T02:48:31;48.44;46.27;54.20;;
77133;Laerm;26708;50.304;19.028;2023-07-13T02:50:36;50.38;46.46;64.46;;
77133;Laerm;26708;50.304;19.028;2023-07-13T02:52:41;48.61;46.23;50.98;;
77133;Laerm;26708;50.304;19.028;2023-07-13T02:54:43;48.82;46.35;53.15;;
77133;Laerm;26708;50.304;19.028;2023-07-13T02:56:49;49.84;46.01;67.29;;
77133;Laerm;26708;50.304;19.028;2023-07-13T02:58:53;49.37;46.24;59.92;;
77133;Laerm;26708;50.304;19.028;2023-07-13T03:00:56;52.67;46.14;68.32;;
77133;Laerm;26708;50.304;19.028;2023-07-13T03:03:05;48.57;46.39;51.20;;
77133;Laerm;26708;50.304;19.028;2023-07-13T03:05:09;48.58;45.80;52.71;;
77133;Laerm;26708;50.304;19.028;2023-07-13T03:07:14;48.67;45.95;52.06;;
77133;Laerm;26708;50.304;19.028;2023-07-13T03:09:22;48.61;46.23;51.99;;
77133;Laerm;26708;50.304;19.028;2023-07-13T03:11:29;49.70;46.50;59.02;;
77133;Laerm;26708;50.304;19.028;2023-07-13T03:13:55;51.27;46.43;63.64;;
77133;Laerm;26708;50.304;19.028;2023-07-13T03:16:01;50.55;46.11;62.97;;
77133;Laerm;26708;50.304;19.028;2023-07-13T03:18:08;49.64;45.94;70.88;;
77133;Laerm;26708;50.304;19.028;2023-07-13T03:20:13;48.36;46.13;52.67;;
77133;Laerm;26708;50.304;19.028;2023-07-13T03:22:19;50.96;45.99;64.35;;
77133;Laerm;26708;50.304;19.028;2023-07-13T03:24:24;48.78;46.21;53.41;;
77133;Laerm;26708;50.304;19.028;2023-07-13T03:26:28;48.28;45.56;50.81;;
77133;Laerm;26708;50.304;19.028;2023-07-13T03:28:34;48.82;46.11;57.22;;
77133;Laerm;26708;50.304;19.028;2023-07-13T03:30:40;53.59;46.27;68.69;;
77133;Laerm;26708;50.304;19.028;2023-07-13T03:32:45;50.66;46.43;64.99;;
77133;Laerm;26708;50.304;19.028;2023-07-13T03:34:54;50.28;46.13;64.71;;
77133;Laerm;26708;50.304;19.028;2023-07-13T03:36:59;50.80;46.25;61.12;;
77133;Laerm;26708;50.304;19.028;2023-07-13T03:39:04;50.03;46.48;60.57;;
77133;Laerm;26708;50.304;19.028;2023-07-13T03:44:17;50.98;46.11;64.86;;
77133;Laerm;26708;50.304;19.028;2023-07-13T03:46:48;50.02;46.26;61.42;;
77133;Laerm;26708;50.304;19.028;2023-07-13T03:49:01;51.66;46.76;64.49;;
77133;Laerm;26708;50.304;19.028;2023-07-13T04:05:44;49.86;46.21;62.93;;
77133;Laerm;26708;50.304;19.028;2023-07-13T04:07:53;54.80;46.03;67.58;;
77133;Laerm;26708;50.304;19.028;2023-07-13T04:09:59;54.47;46.77;69.99;;
77133;Laerm;26708;50.304;19.028;2023-07-13T04:12:07;55.64;46.94;71.97;;
77133;Laerm;26708;50.304;19.028;2023-07-13T04:14:50;55.56;46.02;71.19;;
77133;Laerm;26708;50.304;19.028;2023-07-13T04:17:11;53.89;46.20;67.77;;
77133;Laerm;26708;50.304;19.028;2023-07-13T04:30:41;53.69;46.99;66.61;;
77133;Laerm;26708;50.304;19.028;2023-07-13T04:32:47;56.95;47.23;67.80;;
77133;Laerm;26708;50.304;19.028;2023-07-13T04:34:53;54.12;46.67;66.73;;
77133;Laerm;26708;50.304;19.028;2023-07-13T04:39:54;54.61;46.92;69.72;;
77133;Laerm;26708;50.304;19.028;2023-07-13T04:44:48;53.91;47.25;66.58;;
77133;Laerm;26708;50.304;19.028;2023-07-13T04:46:58;53.09;46.92;65.39;;
77133;Laerm;26708;50.304;19.028;2023-07-13T04:49:04;52.51;47.62;65.61;;
77133;Laerm;26708;50.304;19.028;2023-07-13T05:14:08;58.69;48.79;71.21;;
77133;Laerm;26708;50.304;19.028;2023-07-13T05:16:13;57.52;47.08;68.91;;
77133;Laerm;26708;50.304;19.028;2023-07-13T05:18:19;57.14;46.76;68.43;;
77133;Laerm;26708;50.304;19.028;2023-07-13T05:20:24;55.36;47.29;69.15;;
77133;Laerm;26708;50.304;19.028;2023-07-13T05:22:28;55.89;47.65;67.34;;
77133;Laerm;26708;50.304;19.028;2023-07-13T05:24:34;52.56;47.07;65.94;;
77133;Laerm;26708;50.304;19.028;2023-07-13T05:26:39;56.23;47.12;67.96;;
77133;Laerm;26708;50.304;19.028;2023-07-13T05:28:45;53.03;46.59;65.38;;
77133;Laerm;26708;50.304;19.028;2023-07-13T05:30:54;56.57;47.09;71.50;;
77133;Laerm;26708;50.304;19.028;2023-07-13T05:32:58;57.02;49.25;68.64;;
77133;Laerm;26708;50.304;19.028;2023-07-13T05:35:04;56.62;46.78;69.43;;
77133;Laerm;26708;50.304;19.028;2023-07-13T05:37:10;54.96;46.96;68.14;;
77133;Laerm;26708;50.304;19.028;2023-07-13T05:39:15;52.92;46.66;67.46;;
77133;Laerm;26708;50.304;19.028;2023-07-13T05:41:20;53.09;47.14;69.09;;
77133;Laerm;26708;50.304;19.028;2023-07-13T05:43:26;56.20;47.08;69.79;;
77133;Laerm;26708;50.304;19.028;2023-07-13T05:45:31;52.48;45.87;67.18;;
77133;Laerm;26708;50.304;19.028;2023-07-13T05:47:38;55.32;46.87;68.83;;
77133;Laerm;26708;50.304;19.028;2023-07-13T05:49:43;54.93;47.08;69.67;;
77133;Laerm;26708;50.304;19.028;2023-07-13T05:51:48;57.11;47.72;68.94;;
77133;Laerm;26708;50.304;19.028;2023-07-13T05:53:52;56.15;46.53;69.17;;
77133;Laerm;26708;50.304;19.028;2023-07-13T05:55:57;55.44;47.43;66.75;;
77133;Laerm;26708;50.304;19.028;2023-07-13T05:58:02;54.82;47.01;68.14;;
77133;Laerm;26708;50.304;19.028;2023-07-13T06:00:09;56.66;47.39;68.09;;
77133;Laerm;26708;50.304;19.028;2023-07-13T06:02:14;55.84;47.71;67.95;;
77133;Laerm;26708;50.304;19.028;2023-07-13T06:04:21;55.75;46.83;67.77;;
77133;Laerm;26708;50.304;19.028;2023-07-13T06:06:26;55.81;46.94;71.83;;
77133;Laerm;26708;50.304;19.028;2023-07-13T06:08:31;56.37;47.02;72.84;;
77133;Laerm;26708;50.304;19.028;2023-07-13T06:10:36;56.24;46.94;68.25;;
77133;Laerm;26708;50.304;19.028;2023-07-13T06:12:41;50.84;46.75;61.51;;
77133;Laerm;26708;50.304;19.028;2023-07-13T06:14:47;57.22;46.63;70.67;;
77133;Laerm;26708;50.304;19.028;2023-07-13T06:16:51;51.95;46.90;66.50;;
77133;Laerm;26708;50.304;19.028;2023-07-13T06:18:56;57.11;46.92;75.06;;
77133;Laerm;26708;50.304;19.028;2023-07-13T06:21:07;54.19;46.94;69.14;;
77133;Laerm;26708;50.304;19.028;2023-07-13T06:23:09;63.29;47.27;84.06;;
77133;Laerm;26708;50.304;19.028;2023-07-13T06:25:13;52.54;46.73;65.40;;
77133;Laerm;26708;50.304;19.028;2023-07-13T06:27:19;53.77;47.24;68.43;;
77133;Laerm;26708;50.304;19.028;2023-07-13T06:29:24;55.41;46.55;67.34;;
77133;Laerm;26708;50.304;19.028;2023-07-13T06:31:29;51.11;46.79;63.95;;
77133;Laerm;26708;50.304;19.028;2023-07-13T06:33:35;56.31;47.14;70.83;;
77133;Laerm;26708;50.304;19.028;2023-07-13T06:35:40;55.02;47.04;68.29;;
77133;Laerm;26708;50.304;19.028;2023-07-13T06:37:48;56.64;47.04;70.88;;
77133;Laerm;26708;50.304;19.028;2023-07-13T06:39:53;57.15;48.15;68.88;;
77133;Laerm;26708;50.304;19.028;2023-07-13T06:41:58;56.01;47.08;68.26;;
77133;Laerm;26708;50.304;19.028;2023-07-13T06:44:03;54.41;47.14;67.04;;
77133;Laerm;26708;50.304;19.028;2023-07-13T06:46:09;53.21;46.37;67.89;;
77133;Laerm;26708;50.304;19.028;2023-07-13T06:48:15;56.86;46.82;68.02;;
77133;Laerm;26708;50.304;19.028;2023-07-13T06:50:19;56.02;47.62;68.41;;
77133;Laerm;26708;50.304;19.028;2023-07-13T06:52:25;55.51;47.50;66.52;;
77133;Laerm;26708;50.304;19.028;2023-07-13T06:54:32;56.95;47.61;69.49;;
77133;Laerm;26708;50.304;19.028;2023-07-13T06:56:37;55.37;46.80;68.60;;
77133;Laerm;26708;50.304;19.028;2023-07-13T06:58:42;55.13;47.55;68.72;;
77133;Laerm;26708;50.304;19.028;2023-07-13T07:00:51;50.71;46.68;61.08;;
77133;Laerm;26708;50.304;19.028;2023-07-13T07:02:56;55.13;47.56;66.59;;
77133;Laerm;26708;50.304;19.028;2023-07-13T07:05:02;56.47;47.91;66.07;;
77133;Laerm;26708;50.304;19.028;2023-07-13T07:07:06;58.50;47.33;70.92;;
77133;Laerm;26708;50.304;19.028;2023-07-13T07:09:11;52.52;47.23;65.03;;
77133;Laerm;26708;50.304;19.028;2023-07-13T07:11:24;57.40;47.18;70.27;;
77133;Laerm;26708;50.304;19.028;2023-07-13T07:13:29;56.30;47.74;68.10;;
77133;Laerm;26708;50.304;19.028;2023-07-13T07:15:35;57.73;47.65;68.09;;
77133;Laerm;26708;50.304;19.028;2023-07-13T07:17:41;56.34;46.26;68.83;;
77133;Laerm;26708;50.304;19.028;2023-07-13T07:19:45;57.21;47.70;69.43;;
77133;Laerm;26708;50.304;19.028;2023-07-13T07:21:50;54.28;47.58;66.10;;
77133;Laerm;26708;50.304;19.028;2023-07-13T07:23:55;55.89;47.57;66.33;;
77133;Laerm;26708;50.304;19.028;2023-07-13T07:26:01;61.99;46.86;84.44;;
77133;Laerm;26708;50.304;19.028;2023-07-13T07:28:08;67.29;47.69;81.14;;
77133;Laerm;26708;50.304;19.028;2023-07-13T07:30:14;56.11;47.24;67.16;;
77133;Laerm;26708;50.304;19.028;2023-07-13T07:32:20;56.52;47.03;69.46;;
77133;Laerm;26708;50.304;19.028;2023-07-13T07:34:24;55.54;46.84;66.00;;
77133;Laerm;26708;50.304;19.028;2023-07-13T07:36:30;56.97;47.13;71.47;;
77133;Laerm;26708;50.304;19.028;2023-07-13T07:38:34;55.25;47.72;65.97;;
77133;Laerm;26708;50.304;19.028;2023-07-13T07:40:38;56.99;47.47;73.67;;
77133;Laerm;26708;50.304;19.028;2023-07-13T07:42:44;59.90;46.69;75.48;;
77133;Laerm;26708;50.304;19.028;2023-07-13T07:44:51;54.43;47.09;67.30;;
77133;Laerm;26708;50.304;19.028;2023-07-13T07:46:55;56.24;47.21;67.74;;
77133;Laerm;26708;50.304;19.028;2023-07-13T07:49:01;55.50;47.17;68.33;;
77133;Laerm;26708;50.304;19.028;2023-07-13T07:51:06;56.10;47.56;68.69;;
77133;Laerm;26708;50.304;19.028;2023-07-13T07:53:11;55.50;46.86;68.56;;
77133;Laerm;26708;50.304;19.028;2023-07-13T07:55:16;54.29;47.23;67.18;;
77133;Laerm;26708;50.304;19.028;2023-07-13T07:57:21;50.79;47.01;63.95;;
77133;Laerm;26708;50.304;19.028;2023-07-13T07:59:26;56.29;47.28;68.97;;
77133;Laerm;26708;50.304;19.028;2023-07-13T08:01:34;54.84;47.38;66.43;;
77133;Laerm;26708;50.304;19.028;2023-07-13T08:03:39;55.17;47.33;68.03;;
77133;Laerm;26708;50.304;19.028;2023-07-13T08:05:43;56.20;46.88;69.45;;
77133;Laerm;26708;50.304;19.028;2023-07-13T08:07:49;55.25;46.65;67.15;;
77133;Laerm;26708;50.304;19.028;2023-07-13T08:09:54;56.98;47.75;71.35;;
77133;Laerm;26708;50.304;19.028;2023-07-13T08:11:59;57.82;47.60;68.72;;
77133;Laerm;26708;50.304;19.028;2023-07-13T08:14:05;59.04;46.64;70.92;;
77133;Laerm;26708;50.304;19.028;2023-07-13T08:16:11;58.79;47.85;75.06;;
77133;Laerm;26708;50.304;19.028;2023-07-13T08:18:18;56.29;46.96;69.83;;
77133;Laerm;26708;50.304;19.028;2023-07-13T08:20:24;56.50;47.30;65.75;;
77133;Laerm;26708;50.304;19.028;2023-07-13T08:22:28;54.67;47.37;68.66;;
77133;Laerm;26708;50.304;19.028;2023-07-13T08:24:33;55.70;46.79;66.76;;
77133;Laerm;26708;50.304;19.028;2023-07-13T08:26:38;56.45;46.60;68.10;;
77133;Laerm;26708;50.304;19.028;2023-07-13T08:28:43;57.61;47.78;70.46;;
77133;Laerm;26708;50.304;19.028;2023-07-13T08:30:50;57.80;47.39;75.69;;
77133;Laerm;26708;50.304;19.028;2023-07-13T08:32:56;56.48;48.28;68.69;;
77133;Laerm;26708;50.304;19.028;2023-07-13T08:35:05;55.53;47.63;68.93;;
77133;Laerm;26708;50.304;19.028;2023-07-13T08:37:10;57.16;47.94;69.66;;
77133;Laerm;26708;50.304;19.028;2023-07-13T08:39:13;55.31;47.64;67.86;;
77133;Laerm;26708;50.304;19.028;2023-07-13T08:41:19;56.16;48.00;66.83;;
77133;Laerm;26708;50.304;19.028;2023-07-13T08:43:30;55.86;46.83;66.78;;
77133;Laerm;26708;50.304;19.028;2023-07-13T08:45:46;56.34;47.76;67.70;;
77133;Laerm;26708;50.304;19.028;2023-07-13T08:47:58;57.01;48.49;68.40;;
77133;Laerm;26708;50.304;19.028;2023-07-13T08:50:15;63.23;47.94;85.45;;
77133;Laerm;26708;50.304;19.028;2023-07-13T08:52:36;56.65;48.50;69.24;;
77133;Laerm;26708;50.304;19.028;2023-07-13T08:54:50;58.28;49.02;68.60;;
77133;Laerm;26708;50.304;19.028;2023-07-13T08:56:58;58.04;49.08;68.03;;
77133;Laerm;26708;50.304;19.028;2023-07-13T08:59:13;55.01;48.58;66.87;;
77133;Laerm;26708;50.304;19.028;2023-07-13T09:01:31;58.80;48.57;73.42;;
77133;Laerm;26708;50.304;19.028;2023-07-13T09:03:49;61.07;48.27;75.55;;
77133;Laerm;26708;50.304;19.028;2023-07-13T09:06:04;59.98;47.61;77.14;;
77133;Laerm;26708;50.304;19.028;2023-07-13T09:08:33;57.30;47.27;71.97;;
77133;Laerm;26708;50.304;19.028;2023-07-13T09:10:46;54.80;47.35;66.90;;
77133;Laerm;26708;50.304;19.028;2023-07-13T09:13:11;57.43;47.49;72.55;;
77133;Laerm;26708;50.304;19.028;2023-07-13T09:15:29;54.90;48.07;63.94;;
77133;Laerm;26708;50.304;19.028;2023-07-13T09:17:45;58.78;47.98;71.62;;
77133;Laerm;26708;50.304;19.028;2023-07-13T09:20:02;54.57;48.34;68.31;;
77133;Laerm;26708;50.304;19.028;2023-07-13T09:22:18;56.21;47.22;65.95;;
77133;Laerm;26708;50.304;19.028;2023-07-13T09:24:38;58.94;47.38;73.61;;
77133;Laerm;26708;50.304;19.028;2023-07-13T09:26:47;57.28;47.48;70.91;;
77133;Laerm;26708;50.304;19.028;2023-07-13T09:31:30;57.07;48.99;67.24;;
77133;Laerm;26708;50.304;19.028;2023-07-13T09:33:38;57.22;48.69;71.77;;
77133;Laerm;26708;50.304;19.028;2023-07-13T09:35:43;58.28;49.69;70.24;;
77133;Laerm;26708;50.304;19.028;2023-07-13T09:37:56;55.52;47.97;70.95;;
77133;Laerm;26708;50.304;19.028;2023-07-13T09:40:12;56.85;48.25;67.49;;
77133;Laerm;26708;50.304;19.028;2023-07-13T09:42:22;57.98;48.10;70.67;;
77133;Laerm;26708;50.304;19.028;2023-07-13T09:44:31;54.51;48.45;65.09;;
77133;Laerm;26708;50.304;19.028;2023-07-13T09:46:47;58.17;49.68;70.17;;
77133;Laerm;26708;50.304;19.028;2023-07-13T09:48:56;59.44;49.69;73.11;;
77133;Laerm;26708;50.304;19.028;2023-07-13T09:51:13;57.25;49.25;67.59;;
77133;Laerm;26708;50.304;19.028;2023-07-13T09:53:30;61.94;49.05;81.68;;
77133;Laerm;26708;50.304;19.028;2023-07-13T09:55:39;59.06;47.94;75.02;;
77133;Laerm;26708;50.304;19.028;2023-07-13T09:57:47;62.02;49.83;77.95;;
77133;Laerm;26708;50.304;19.028;2023-07-13T09:59:56;58.07;48.24;70.01;;
77133;Laerm;26708;50.304;19.028;2023-07-13T10:02:25;58.92;49.78;70.99;;
77133;Laerm;26708;50.304;19.028;2023-07-13T10:04:33;59.02;50.31;67.88;;
77133;Laerm;26708;50.304;19.028;2023-07-13T10:06:40;59.74;51.38;69.56;;
77133;Laerm;26708;50.304;19.028;2023-07-13T10:08:50;57.73;50.46;72.02;;
77133;Laerm;26708;50.304;19.028;2023-07-13T10:11:01;58.84;51.23;67.01;;
77133;Laerm;26708;50.304;19.028;2023-07-13T10:13:32;59.41;51.93;73.42;;
77133;Laerm;26708;50.304;19.028;2023-07-13T10:15:44;60.28;52.66;69.15;;
77133;Laerm;26708;50.304;19.028;2023-07-13T10:17:54;62.22;54.15;73.43;;
77133;Laerm;26708;50.304;19.028;2023-07-13T10:20:12;65.21;58.93;72.37;;
77133;Laerm;26708;50.304;19.028;2023-07-13T10:22:29;62.57;55.32;72.02;;
77133;Laerm;26708;50.304;19.028;2023-07-13T10:24:55;61.34;54.96;72.63;;
77133;Laerm;26708;50.304;19.028;2023-07-13T10:27:16;61.07;55.34;71.84;;
77133;Laerm;26708;50.304;19.028;2023-07-13T10:29:34;62.09;54.37;71.58;;
77133;Laerm;26708;50.304;19.028;2023-07-13T10:31:41;61.76;54.35;72.97;;
77133;Laerm;26708;50.304;19.028;2023-07-13T10:34:00;61.58;54.66;75.69;;
77133;Laerm;26708;50.304;19.028;2023-07-13T10:39:32;62.67;57.62;74.93;;
77133;Laerm;26708;50.304;19.028;2023-07-13T10:48:46;61.50;54.02;73.39;;
77133;Laerm;26708;50.304;19.028;2023-07-13T11:01:28;62.53;54.27;72.58;;
77133;Laerm;26708;50.304;19.028;2023-07-13T11:10:55;61.62;52.25;74.31;;
77133;Laerm;26708;50.304;19.028;2023-07-13T11:17:48;61.57;51.26;73.18;;
77133;Laerm;26708;50.304;19.028;2023-07-13T11:20:37;62.06;52.32;73.25;;
77133;Laerm;26708;50.304;19.028;2023-07-13T11:32:23;60.17;48.97;73.92;;
77133;Laerm;26708;50.304;19.028;2023-07-13T11:34:46;61.95;50.11;72.70;;
77133;Laerm;26708;50.304;19.028;2023-07-13T11:36:56;62.15;49.77;72.29;;
77133;Laerm;26708;50.304;19.028;2023-07-13T11:42:18;63.17;47.89;78.25;;
77133;Laerm;26708;50.304;19.028;2023-07-13T11:44:29;60.85;48.27;74.72;;
77133;Laerm;26708;50.304;19.028;2023-07-13T11:46:34;53.91;46.66;69.23;;
77133;Laerm;26708;50.304;19.028;2023-07-13T11:48:40;57.51;47.27;70.88;;
77133;Laerm;26708;50.304;19.028;2023-07-13T11:51:05;56.43;47.00;67.78;;
77133;Laerm;26708;50.304;19.028;2023-07-13T11:53:18;58.22;46.45;75.29;;
77133;Laerm;26708;50.304;19.028;2023-07-13T11:55:38;58.66;46.22;72.84;;
77133;Laerm;26708;50.304;19.028;2023-07-13T11:57:50;61.72;47.17;73.16;;
77133;Laerm;26708;50.304;19.028;2023-07-13T11:59:58;60.56;45.80;76.32;;
77133;Laerm;26708;50.304;19.028;2023-07-13T12:02:31;53.13;45.56;67.04;;
77133;Laerm;26708;50.304;19.028;2023-07-13T12:04:43;60.43;45.15;72.63;;
77133;Laerm;26708;50.304;19.028;2023-07-13T12:06:56;59.33;45.00;71.11;;
77133;Laerm;26708;50.304;19.028;2023-07-13T12:09:14;58.25;45.47;69.95;;
77133;Laerm;26708;50.304;19.028;2023-07-13T12:11:19;64.35;46.17;75.07;;
77133;Laerm;26708;50.304;19.028;2023-07-13T12:13:27;59.44;45.76;69.84;;
77133;Laerm;26708;50.304;19.028;2023-07-13T12:15:39;60.08;46.18;70.90;;
77133;Laerm;26708;50.304;19.028;2023-07-13T12:17:46;58.19;44.21;69.80;;
77133;Laerm;26708;50.304;19.028;2023-07-13T12:19:53;57.69;47.57;71.96;;
77133;Laerm;26708;50.304;19.028;2023-07-13T12:22:13;59.88;46.81;72.28;;
77133;Laerm;26708;50.304;19.028;2023-07-13T12:24:22;60.89;45.77;76.10;;
77133;Laerm;26708;50.304;19.028;2023-07-13T12:26:25;59.40;46.38;70.52;;
77133;Laerm;26708;50.304;19.028;2023-07-13T12:28:35;56.62;45.54;69.83;;
77133;Laerm;26708;50.304;19.028;2023-07-13T12:30:41;58.44;46.00;70.53;;
77133;Laerm;26708;50.304;19.028;2023-07-13T12:32:57;57.02;46.21;67.48;;
77133;Laerm;26708;50.304;19.028;2023-07-13T12:35:16;58.15;45.41;70.84;;
77133;Laerm;26708;50.304;19.028;2023-07-13T12:37:23;56.99;44.32;72.40;;
77133;Laerm;26708;50.304;19.028;2023-07-13T12:39:36;59.84;45.35;73.98;;
77133;Laerm;26708;50.304;19.028;2023-07-13T12:41:43;61.11;46.07;73.29;;
77133;Laerm;26708;50.304;19.028;2023-07-13T12:43:49;58.24;45.50;70.80;;
77133;Laerm;26708;50.304;19.028;2023-07-13T12:46:02;58.74;44.82;71.00;;
77133;Laerm;26708;50.304;19.028;2023-07-13T12:48:16;57.49;44.95;71.57;;
77133;Laerm;26708;50.304;19.028;2023-07-13T12:50:30;58.75;46.51;67.51;;
77133;Laerm;26708;50.304;19.028;2023-07-13T12:52:38;59.61;47.05;75.28;;
77133;Laerm;26708;50.304;19.028;2023-07-13T12:54:54;57.15;46.44;70.76;;
77133;Laerm;26708;50.304;19.028;2023-07-13T12:57:02;57.02;44.68;68.53;;
77133;Laerm;26708;50.304;19.028;2023-07-13T12:59:20;54.34;45.44;68.22;;
77133;Laerm;26708;50.304;19.028;2023-07-13T13:01:33;57.23;45.38;70.13;;
77133;Laerm;26708;50.304;19.028;2023-07-13T13:03:45;57.65;46.33;68.30;;
77133;Laerm;26708;50.304;19.028;2023-07-13T13:06:05;56.73;44.98;69.74;;
77133;Laerm;26708;50.304;19.028;2023-07-13T13:08:13;56.78;45.55;68.34;;
77133;Laerm;26708;50.304;19.028;2023-07-13T13:10:17;59.23;45.60;69.76;;
77133;Laerm;26708;50.304;19.028;2023-07-13T13:12:23;56.77;45.81;68.00;;
77133;Laerm;26708;50.304;19.028;2023-07-13T13:14:29;57.19;46.30;68.28;;
77133;Laerm;26708;50.304;19.028;2023-07-13T13:16:37;57.27;45.11;69.74;;
77133;Laerm;26708;50.304;19.028;2023-07-13T13:18:43;57.09;46.43;69.60;;
77133;Laerm;26708;50.304;19.028;2023-07-13T13:20:49;58.33;45.59;70.36;;
77133;Laerm;26708;50.304;19.028;2023-07-13T13:22:57;55.87;44.71;71.03;;
77133;Laerm;26708;50.304;19.028;2023-07-13T13:25:01;55.57;45.51;66.00;;
77133;Laerm;26708;50.304;19.028;2023-07-13T13:27:17;58.30;45.57;80.03;;
77133;Laerm;26708;50.304;19.028;2023-07-13T13:29:24;56.75;45.85;68.61;;
77133;Laerm;26708;50.304;19.028;2023-07-13T13:31:29;60.28;46.13;75.66;;
77133;Laerm;26708;50.304;19.028;2023-07-13T13:33:34;56.45;44.90;66.44;;
77133;Laerm;26708;50.304;19.028;2023-07-13T13:35:41;56.57;45.37;69.95;;